Karin S — V2BM6 — position and weather

sailwx.info

Track history (hours):
 
Tides and Currents Weather Stations Pressure Air Temp Water Temp Dewpoint Dewpoint Depression Visibility Wind Speed Wind Dir Waves Ship Positions

Karin S

Last reported at 2015-Sep-02 01:31 UTC. Time now 2015-Sep-02 02:29 UTC.
Position N 39°26' W 000°20'.

Length 148 m; draft 6.9 m.

Type: Cargo ship. MMSI: 304871000.

Date/timePositionNaut miles runAvg speedWind from/ knotsBaromVisibWave heightAir tempDewpointWater temp
2015-Sep-02 01:31N 39°26' W 000°20'0 0.0
2015-Sep-02 00:32N 39°26' W 000°20'0 0.0
2015-Sep-01 23:32N 39°26' W 000°20'2 2.4
2015-Sep-01 22:33N 39°24' W 000°18'0 0.1
2015-Sep-01 21:31N 39°24' W 000°18'0 0.0
2015-Sep-01 20:31N 39°24' W 000°18'0 0.0
2015-Sep-01 19:32N 39°24' W 000°18'0 0.0
2015-Sep-01 18:32N 39°24' W 000°18'6 5.1
2015-Sep-01 17:26N 39°22' W 000°11'1 0.9
2015-Sep-01 16:26N 39°22' W 000°12'5 5.1
2015-Sep-01 15:32N 39°24' W 000°18'0 0.0
2015-Sep-01 14:26N 39°24' W 000°18'0 0.0
2015-Sep-01 13:31N 39°24' W 000°18'0 0.0
2015-Sep-01 12:32N 39°24' W 000°18'0 0.0
2015-Sep-01 11:31N 39°24' W 000°18'0 0.0
2015-Sep-01 10:32N 39°24' W 000°18'0 0.1
2015-Sep-01 08:30N 39°24' W 000°18'0 0.0
2015-Sep-01 07:32N 39°24' W 000°18'0 0.1
2015-Sep-01 06:32N 39°24' W 000°18'0 0.0
2015-Sep-01 05:23N 39°24' W 000°18'0 0.0
2015-Sep-01 04:32N 39°24' W 000°18'0 0.0
2015-Sep-01 03:29N 39°24' W 000°18'0 0.0
2015-Sep-01 01:14N 39°24' W 000°18'4 5.1
2015-Sep-01 00:31N 39°23' W 000°13'8111.6
2015-Aug-31 17:33N 38°38' E 001°13'1212.2
2015-Aug-31 16:33N 38°32' E 001°27'1212.2
2015-Aug-31 15:33N 38°29' E 001°42'1212.5
2015-Aug-31 14:34N 38°25' E 001°57'3112.8
2015-Aug-31 12:09N 38°15' E 002°34'1112.5
2015-Aug-31 11:16N 38°11' E 002°47'3612.9
2015-Aug-31 08:27N 38°00' E 003°31'1213.0
2015-Aug-31 07:33N 37°56' E 003°45'4112.8
2015-Aug-31 04:22N 37°43' E 004°34'  
2015-Aug-26 21:32N 37°33' E 005°06'1311.5
2015-Aug-26 20:26N 37°37' E 004°51'1112.2
2015-Aug-26 19:33N 37°41' E 004°38'1311.9
2015-Aug-26 18:30N 37°45' E 004°23'1212.0
2015-Aug-26 17:31N 37°49' E 004°09'1611.9
2015-Aug-26 16:11N 37°54' E 003°50'811.8
2015-Aug-26 15:29N 37°57' E 003°40'1111.6
2015-Aug-26 14:32N 38°00' E 003°27'1611.6
2015-Aug-26 13:09N 38°05' E 003°07'811.5
2015-Aug-26 12:28N 38°08' E 002°58'7 5.7
2015-Aug-26 11:11N 38°10' E 002°49'710.2
2015-Aug-26 10:33N 38°12' E 002°41'15111.6
2015-Aug-25 21:30N 39°23' W 000°11'7 7.8
2015-Aug-25 20:33N 39°26' W 000°20'0 0.0
2015-Aug-25 19:33N 39°26' W 000°20'0 0.0
2015-Aug-25 18:30N 39°26' W 000°20'0 0.0
2015-Aug-25 17:30N 39°26' W 000°20'0 0.0
2015-Aug-25 16:30N 39°26' W 000°20'0 0.0
2015-Aug-25 15:33N 39°26' W 000°20'0 0.0
2015-Aug-25 14:30N 39°26' W 000°20'0 0.0
2015-Aug-25 13:30N 39°26' W 000°20'0 0.0
2015-Aug-25 12:33N 39°26' W 000°20'0 0.0
2015-Aug-25 11:33N 39°26' W 000°20'0 0.3
2015-Aug-25 10:29N 39°26' W 000°19'0 0.0
2015-Aug-25 09:34N 39°26' W 000°19'0 0.0
2015-Aug-25 08:33N 39°26' W 000°19'0 0.0
2015-Aug-25 07:34N 39°26' W 000°19'0 0.0
2015-Aug-25 06:34N 39°26' W 000°19'0 0.0
2015-Aug-25 05:32N 39°26' W 000°19'0 0.0
2015-Aug-25 03:26N 39°26' W 000°19'0 0.0
2015-Aug-25 02:14N 39°26' W 000°19'0 0.0
2015-Aug-25 01:32N 39°26' W 000°19'0 0.0
2015-Aug-25 00:32N 39°26' W 000°19'0 0.0
2015-Aug-24 23:32N 39°26' W 000°19'0 0.0
2015-Aug-24 22:32N 39°26' W 000°19'0 0.0
2015-Aug-24 21:33N 39°26' W 000°19'0 0.0
2015-Aug-24 20:33N 39°26' W 000°19'0 0.0
2015-Aug-24 19:09N 39°26' W 000°19'0 0.0
2015-Aug-24 18:33N 39°26' W 000°19'0 0.0
2015-Aug-24 17:33N 39°26' W 000°19'0 0.0
2015-Aug-24 16:33N 39°26' W 000°19'0 0.0
2015-Aug-24 15:33N 39°26' W 000°19'0 0.0
2015-Aug-24 14:33N 39°26' W 000°19'3 0.8
2015-Aug-24 10:27N 39°24' W 000°16'7 8.3
2015-Aug-24 09:33N 39°22' W 000°07'14311.5
2015-Aug-23 21:05N 38°15' E 002°35'611.6
2015-Aug-23 20:33N 38°13' E 002°43'1211.5
2015-Aug-23 19:31N 38°09' E 002°57'1211.5
2015-Aug-23 18:30N 38°05' E 003°11'8111.5
2015-Aug-23 11:26N 37°40' E 004°49'  
Track history (hours):
 
Tides and Currents Weather Stations Pressure Air Temp Water Temp Dewpoint Dewpoint Depression Visibility Wind Speed Wind Dir Waves Ship Positions

Karin S

Last reported at 2015-Sep-02 01:31 UTC. Time now 2015-Sep-02 02:29 UTC.
Position N 39°26' W 000°20'.

Length 148 m; draft 6.9 m.

Type: Cargo ship. MMSI: 304871000.

Date/timePositionNaut miles runAvg speedWind from/ knotsBaromVisibWave heightAir tempDewpointWater temp
2015-Sep-02 01:31N 39°26' W 000°20'0 0.0
2015-Sep-02 00:32N 39°26' W 000°20'0 0.0
2015-Sep-01 23:32N 39°26' W 000°20'2 2.4
2015-Sep-01 22:33N 39°24' W 000°18'0 0.1
2015-Sep-01 21:31N 39°24' W 000°18'0 0.0
2015-Sep-01 20:31N 39°24' W 000°18'0 0.0
2015-Sep-01 19:32N 39°24' W 000°18'0 0.0
2015-Sep-01 18:32N 39°24' W 000°18'6 5.1
2015-Sep-01 17:26N 39°22' W 000°11'1 0.9
2015-Sep-01 16:26N 39°22' W 000°12'5 5.1
2015-Sep-01 15:32N 39°24' W 000°18'0 0.0
2015-Sep-01 14:26N 39°24' W 000°18'0 0.0
2015-Sep-01 13:31N 39°24' W 000°18'0 0.0
2015-Sep-01 12:32N 39°24' W 000°18'0 0.0
2015-Sep-01 11:31N 39°24' W 000°18'0 0.0
2015-Sep-01 10:32N 39°24' W 000°18'0 0.1
2015-Sep-01 08:30N 39°24' W 000°18'0 0.0
2015-Sep-01 07:32N 39°24' W 000°18'0 0.1
2015-Sep-01 06:32N 39°24' W 000°18'0 0.0
2015-Sep-01 05:23N 39°24' W 000°18'0 0.0
2015-Sep-01 04:32N 39°24' W 000°18'0 0.0
2015-Sep-01 03:29N 39°24' W 000°18'0 0.0
2015-Sep-01 01:14N 39°24' W 000°18'4 5.1
2015-Sep-01 00:31N 39°23' W 000°13'8111.6
2015-Aug-31 17:33N 38°38' E 001°13'1212.2
2015-Aug-31 16:33N 38°32' E 001°27'1212.2
2015-Aug-31 15:33N 38°29' E 001°42'1212.5
2015-Aug-31 14:34N 38°25' E 001°57'3112.8
2015-Aug-31 12:09N 38°15' E 002°34'1112.5
2015-Aug-31 11:16N 38°11' E 002°47'3612.9
2015-Aug-31 08:27N 38°00' E 003°31'1213.0
2015-Aug-31 07:33N 37°56' E 003°45'4112.8
2015-Aug-31 04:22N 37°43' E 004°34'  
2015-Aug-26 21:32N 37°33' E 005°06'1311.5
2015-Aug-26 20:26N 37°37' E 004°51'1112.2
2015-Aug-26 19:33N 37°41' E 004°38'1311.9
2015-Aug-26 18:30N 37°45' E 004°23'1212.0
2015-Aug-26 17:31N 37°49' E 004°09'1611.9
2015-Aug-26 16:11N 37°54' E 003°50'811.8
2015-Aug-26 15:29N 37°57' E 003°40'1111.6
2015-Aug-26 14:32N 38°00' E 003°27'1611.6
2015-Aug-26 13:09N 38°05' E 003°07'811.5
2015-Aug-26 12:28N 38°08' E 002°58'7 5.7
2015-Aug-26 11:11N 38°10' E 002°49'710.2
2015-Aug-26 10:33N 38°12' E 002°41'15111.6
2015-Aug-25 21:30N 39°23' W 000°11'7 7.8
2015-Aug-25 20:33N 39°26' W 000°20'0 0.0
2015-Aug-25 19:33N 39°26' W 000°20'0 0.0
2015-Aug-25 18:30N 39°26' W 000°20'0 0.0
2015-Aug-25 17:30N 39°26' W 000°20'0 0.0
2015-Aug-25 16:30N 39°26' W 000°20'0 0.0
2015-Aug-25 15:33N 39°26' W 000°20'0 0.0
2015-Aug-25 14:30N 39°26' W 000°20'0 0.0
2015-Aug-25 13:30N 39°26' W 000°20'0 0.0
2015-Aug-25 12:33N 39°26' W 000°20'0 0.0
2015-Aug-25 11:33N 39°26' W 000°20'0 0.3
2015-Aug-25 10:29N 39°26' W 000°19'0 0.0
2015-Aug-25 09:34N 39°26' W 000°19'0 0.0
2015-Aug-25 08:33N 39°26' W 000°19'0 0.0
2015-Aug-25 07:34N 39°26' W 000°19'0 0.0
2015-Aug-25 06:34N 39°26' W 000°19'0 0.0
2015-Aug-25 05:32N 39°26' W 000°19'0 0.0
2015-Aug-25 03:26N 39°26' W 000°19'0 0.0
2015-Aug-25 02:14N 39°26' W 000°19'0 0.0
2015-Aug-25 01:32N 39°26' W 000°19'0 0.0
2015-Aug-25 00:32N 39°26' W 000°19'0 0.0
2015-Aug-24 23:32N 39°26' W 000°19'0 0.0
2015-Aug-24 22:32N 39°26' W 000°19'0 0.0
2015-Aug-24 21:33N 39°26' W 000°19'0 0.0
2015-Aug-24 20:33N 39°26' W 000°19'0 0.0
2015-Aug-24 19:09N 39°26' W 000°19'0 0.0
2015-Aug-24 18:33N 39°26' W 000°19'0 0.0
2015-Aug-24 17:33N 39°26' W 000°19'0 0.0
2015-Aug-24 16:33N 39°26' W 000°19'0 0.0
2015-Aug-24 15:33N 39°26' W 000°19'0 0.0
2015-Aug-24 14:33N 39°26' W 000°19'3 0.8
2015-Aug-24 10:27N 39°24' W 000°16'7 8.3
2015-Aug-24 09:33N 39°22' W 000°07'14311.5
2015-Aug-23 21:05N 38°15' E 002°35'611.6
2015-Aug-23 20:33N 38°13' E 002°43'1211.5
2015-Aug-23 19:31N 38°09' E 002°57'1211.5
2015-Aug-23 18:30N 38°05' E 003°11'8111.5
2015-Aug-23 11:26N 37°40' E 004°49'  

Dump ship's entire track history